sensor_id;sensor_type;location;lat;lon;timestamp;pressure;altitude;pressure_sealevel;temperature;humidity
30302;BME280;17111;52.130;5.028;2023-05-11T00:00:35;101556.56;;;19.90;54.09
30302;BME280;17111;52.130;5.028;2023-05-11T00:03:01;101553.84;;;19.90;54.33
30302;BME280;17111;52.130;5.028;2023-05-11T00:05:28;101556.56;;;19.90;54.21
30302;BME280;17111;52.130;5.028;2023-05-11T00:07:55;101554.00;;;19.89;54.07
30302;BME280;17111;52.130;5.028;2023-05-11T00:10:21;101548.59;;;19.89;54.56
30302;BME280;17111;52.130;5.028;2023-05-11T00:12:48;101545.06;;;19.88;54.67
30302;BME280;17111;52.130;5.028;2023-05-11T00:15:14;101537.00;;;19.88;53.87
30302;BME280;17111;52.130;5.028;2023-05-11T00:17:41;101546.91;;;19.88;54.47
30302;BME280;17111;52.130;5.028;2023-05-11T00:20:08;101541.53;;;19.88;54.74
30302;BME280;17111;52.130;5.028;2023-05-11T00:22:35;101537.00;;;19.88;54.43
30302;BME280;17111;52.130;5.028;2023-05-11T00:25:01;101535.31;;;19.87;54.10
30302;BME280;17111;52.130;5.028;2023-05-11T00:27:28;101527.38;;;19.86;54.17
30302;BME280;17111;52.130;5.028;2023-05-11T00:29:54;101527.38;;;19.86;54.01
30302;BME280;17111;52.130;5.028;2023-05-11T00:32:21;101530.06;;;19.86;54.65
30302;BME280;17111;52.130;5.028;2023-05-11T00:34:48;101535.44;;;19.86;54.05
30302;BME280;17111;52.130;5.028;2023-05-11T00:37:14;101531.06;;;19.85;54.56
30302;BME280;17111;52.130;5.028;2023-05-11T00:39:41;101536.44;;;19.85;54.60
30302;BME280;17111;52.130;5.028;2023-05-11T00:42:09;101539.13;;;19.85;54.18
30302;BME280;17111;52.130;5.028;2023-05-11T00:44:35;101539.13;;;19.85;54.25
30302;BME280;17111;52.130;5.028;2023-05-11T00:47:02;101545.53;;;19.84;54.35
30302;BME280;17111;52.130;5.028;2023-05-11T00:49:29;101542.84;;;19.84;54.73
30302;BME280;17111;52.130;5.028;2023-05-11T00:51:56;101541.16;;;19.83;54.01
30302;BME280;17111;52.130;5.028;2023-05-11T00:54:23;101539.31;;;19.83;54.43
30302;BME280;17111;52.130;5.028;2023-05-11T00:56:50;101543.84;;;19.83;54.72
30302;BME280;17111;52.130;5.028;2023-05-11T00:59:17;101539.44;;;19.82;54.48
30302;BME280;17111;52.130;5.028;2023-05-11T01:01:44;101542.13;;;19.82;54.37
30302;BME280;17111;52.130;5.028;2023-05-11T01:04:11;101541.28;;;19.81;54.09
30302;BME280;17111;52.130;5.028;2023-05-11T01:09:30;101543.28;;;19.79;54.16
30302;BME280;17111;52.130;5.028;2023-05-11T01:12:35;101546.97;;;19.78;54.41
30302;BME280;17111;52.130;5.028;2023-05-11T01:15:11;101537.06;;;19.79;54.48
30302;BME280;17111;52.130;5.028;2023-05-11T01:20:11;101537.06;;;19.79;54.71
30302;BME280;17111;52.130;5.028;2023-05-11T01:28:56;101545.41;;;19.76;54.20
30302;BME280;17111;52.130;5.028;2023-05-11T01:31:20;101553.19;;;19.79;54.82
30302;BME280;17111;52.130;5.028;2023-05-11T01:33:53;101548.09;;;19.76;54.46
30302;BME280;17111;52.130;5.028;2023-05-11T01:36:24;101548.09;;;19.76;53.85
30302;BME280;17111;52.130;5.028;2023-05-11T01:38:53;101548.09;;;19.76;54.57
30302;BME280;17111;52.130;5.028;2023-05-11T01:41:24;101547.25;;;19.75;54.55
30302;BME280;17111;52.130;5.028;2023-05-11T01:43:56;101548.28;;;19.74;54.41
30302;BME280;17111;52.130;5.028;2023-05-11T01:46:29;101546.41;;;19.75;54.16
30302;BME280;17111;52.130;5.028;2023-05-11T01:48:57;101544.69;;;19.73;54.66
30302;BME280;17111;52.130;5.028;2023-05-11T01:51:26;101542.72;;;19.76;54.27
30302;BME280;17111;52.130;5.028;2023-05-11T01:53:56;101535.66;;;19.75;54.30
30302;BME280;17111;52.130;5.028;2023-05-11T01:56:23;101542.88;;;19.74;54.77
30302;BME280;17111;52.130;5.028;2023-05-11T01:58:53;101543.84;;;19.73;54.18
30302;BME280;17111;52.130;5.028;2023-05-11T02:01:23;101541.16;;;19.73;54.28
30302;BME280;17111;52.130;5.028;2023-05-11T02:03:51;101545.72;;;19.72;54.17
30302;BME280;17111;52.130;5.028;2023-05-11T02:06:19;101542.16;;;19.72;54.82
30302;BME280;17111;52.130;5.028;2023-05-11T02:08:48;101551.09;;;19.72;54.07
30302;BME280;17111;52.130;5.028;2023-05-11T02:11:16;101557.47;;;19.71;53.94
30302;BME280;17111;52.130;5.028;2023-05-11T02:13:44;101560.16;;;19.71;53.88
30302;BME280;17111;52.130;5.028;2023-05-11T02:16:12;101557.63;;;19.70;54.77
30302;BME280;17111;52.130;5.028;2023-05-11T02:18:41;101564.81;;;19.69;54.76
30302;BME280;17111;52.130;5.028;2023-05-11T02:21:08;101567.50;;;19.69;54.59
30302;BME280;17111;52.130;5.028;2023-05-11T02:23:36;101560.31;;;19.70;54.19
30302;BME280;17111;52.130;5.028;2023-05-11T02:26:03;101559.44;;;19.69;54.78
30302;BME280;17111;52.130;5.028;2023-05-11T02:28:31;101570.19;;;19.69;54.08
30302;BME280;17111;52.130;5.028;2023-05-11T02:31:01;101568.50;;;19.68;54.70
30302;BME280;17111;52.130;5.028;2023-05-11T02:33:33;101572.88;;;19.69;54.65
30302;BME280;17111;52.130;5.028;2023-05-11T02:36:01;101568.50;;;19.68;54.47
30302;BME280;17111;52.130;5.028;2023-05-11T02:38:32;101571.19;;;19.68;54.86
30302;BME280;17111;52.130;5.028;2023-05-11T02:41:03;101573.88;;;19.68;54.45
30302;BME280;17111;52.130;5.028;2023-05-11T02:43:32;101570.34;;;19.68;54.67
30302;BME280;17111;52.130;5.028;2023-05-11T02:46:06;101559.59;;;19.68;54.17
30302;BME280;17111;52.130;5.028;2023-05-11T02:48:37;101559.75;;;19.66;54.75
30302;BME280;17111;52.130;5.028;2023-05-11T02:51:06;101562.13;;;19.69;54.62
30302;BME280;17111;52.130;5.028;2023-05-11T02:53:36;101565.81;;;19.68;54.62
30302;BME280;17111;52.130;5.028;2023-05-11T02:56:05;101564.13;;;19.67;54.45
30302;BME280;17111;52.130;5.028;2023-05-11T02:58:33;101567.66;;;19.68;54.50
30302;BME280;17111;52.130;5.028;2023-05-11T03:01:00;101565.97;;;19.67;53.98
30302;BME280;17111;52.130;5.028;2023-05-11T03:03:27;101566.09;;;19.65;54.72
30302;BME280;17111;52.130;5.028;2023-05-11T03:05:54;101567.97;;;19.65;54.16
30302;BME280;17111;52.130;5.028;2023-05-11T03:08:21;101567.09;;;19.64;54.09
30302;BME280;17111;52.130;5.028;2023-05-11T03:10:47;101564.41;;;19.64;54.19
30302;BME280;17111;52.130;5.028;2023-05-11T03:13:14;101564.41;;;19.64;54.57
30302;BME280;17111;52.130;5.028;2023-05-11T03:15:42;101565.44;;;19.63;54.58
30302;BME280;17111;52.130;5.028;2023-05-11T03:18:10;101562.75;;;19.63;54.32
30302;BME280;17111;52.130;5.028;2023-05-11T03:20:39;101566.28;;;19.64;54.47
30302;BME280;17111;52.130;5.028;2023-05-11T03:23:09;101559.19;;;19.63;54.56
30302;BME280;17111;52.130;5.028;2023-05-11T03:25:37;101561.91;;;19.63;54.21
30302;BME280;17111;52.130;5.028;2023-05-11T03:28:05;101562.75;;;19.63;53.92
30302;BME280;17111;52.130;5.028;2023-05-11T03:30:32;101557.34;;;19.63;53.99
30302;BME280;17111;52.130;5.028;2023-05-11T03:32:59;101564.59;;;19.63;54.07
30302;BME280;17111;52.130;5.028;2023-05-11T03:35:27;101559.31;;;19.61;54.67
30302;BME280;17111;52.130;5.028;2023-05-11T03:37:57;101553.94;;;19.61;53.91
30302;BME280;17111;52.130;5.028;2023-05-11T03:40:26;101553.06;;;19.61;54.35
30302;BME280;17111;52.130;5.028;2023-05-11T03:42:56;101548.56;;;19.61;54.29
30302;BME280;17111;52.130;5.028;2023-05-11T03:45:24;101545.00;;;19.61;53.99
30302;BME280;17111;52.130;5.028;2023-05-11T03:47:53;101546.84;;;19.60;53.80
30302;BME280;17111;52.130;5.028;2023-05-11T03:50:21;101543.31;;;19.60;54.20
30302;BME280;17111;52.130;5.028;2023-05-11T03:52:48;101539.78;;;19.59;53.85
30302;BME280;17111;52.130;5.028;2023-05-11T03:55:16;101535.25;;;19.60;54.35
30302;BME280;17111;52.130;5.028;2023-05-11T03:57:42;101537.09;;;19.59;54.02
30302;BME280;17111;52.130;5.028;2023-05-11T04:00:09;101539.78;;;19.59;54.35
30302;BME280;17111;52.130;5.028;2023-05-11T04:02:37;101539.78;;;19.59;54.48
30302;BME280;17111;52.130;5.028;2023-05-11T04:05:07;101542.47;;;19.59;54.57
30302;BME280;17111;52.130;5.028;2023-05-11T04:07:35;101538.94;;;19.59;54.11
30302;BME280;17111;52.130;5.028;2023-05-11T04:10:04;101542.47;;;19.59;54.05
30302;BME280;17111;52.130;5.028;2023-05-11T04:12:31;101538.09;;;19.58;54.39
30302;BME280;17111;52.130;5.028;2023-05-11T04:14:58;101538.09;;;19.58;54.69
30302;BME280;17111;52.130;5.028;2023-05-11T04:17:25;101538.09;;;19.58;54.33
30302;BME280;17111;52.130;5.028;2023-05-11T04:19:51;101537.09;;;19.59;54.45
30302;BME280;17111;52.130;5.028;2023-05-11T04:22:18;101541.63;;;19.59;54.72
30302;BME280;17111;52.130;5.028;2023-05-11T04:24:44;101538.94;;;19.59;53.92
30302;BME280;17111;52.130;5.028;2023-05-11T04:27:13;101543.47;;;19.58;54.41
30302;BME280;17111;52.130;5.028;2023-05-11T04:29:41;101546.28;;;19.57;54.71
30302;BME280;17111;52.130;5.028;2023-05-11T04:32:08;101552.38;;;19.59;54.04
30302;BME280;17111;52.130;5.028;2023-05-11T04:34:34;101554.38;;;19.57;54.19
30302;BME280;17111;52.130;5.028;2023-05-11T04:37:01;101555.22;;;19.57;54.59
30302;BME280;17111;52.130;5.028;2023-05-11T04:39:33;101559.75;;;19.57;54.52
30302;BME280;17111;52.130;5.028;2023-05-11T04:42:00;101565.13;;;19.57;54.02
30302;BME280;17111;52.130;5.028;2023-05-11T04:44:27;101567.69;;;19.58;54.43
30302;BME280;17111;52.130;5.028;2023-05-11T04:46:54;101568.66;;;19.57;54.57
30302;BME280;17111;52.130;5.028;2023-05-11T04:49:21;101564.28;;;19.56;54.54
30302;BME280;17111;52.130;5.028;2023-05-11T04:51:48;101564.28;;;19.56;53.90
30302;BME280;17111;52.130;5.028;2023-05-11T04:54:14;101565.28;;;19.55;54.50
30302;BME280;17111;52.130;5.028;2023-05-11T04:56:42;101565.97;;;19.57;53.84
30302;BME280;17111;52.130;5.028;2023-05-11T04:59:09;101569.66;;;19.56;54.39
30302;BME280;17111;52.130;5.028;2023-05-11T05:01:36;101574.03;;;19.57;54.30
30302;BME280;17111;52.130;5.028;2023-05-11T05:04:02;101569.66;;;19.56;53.96
30302;BME280;17111;52.130;5.028;2023-05-11T05:06:29;101576.59;;;19.59;54.05
30302;BME280;17111;52.130;5.028;2023-05-11T05:08:57;101576.72;;;19.57;54.38
30302;BME280;17111;52.130;5.028;2023-05-11T05:11:23;101579.41;;;19.57;54.56
30302;BME280;17111;52.130;5.028;2023-05-11T05:13:50;101579.41;;;19.57;53.80
30302;BME280;17111;52.130;5.028;2023-05-11T05:16:17;101587.34;;;19.59;54.01
30302;BME280;17111;52.130;5.028;2023-05-11T05:18:43;101583.81;;;19.58;53.89
30302;BME280;17111;52.130;5.028;2023-05-11T05:21:10;101590.03;;;19.59;54.01
30302;BME280;17111;52.130;5.028;2023-05-11T05:23:36;101587.47;;;19.57;54.44
30302;BME280;17111;52.130;5.028;2023-05-11T05:26:03;101597.09;;;19.60;53.91
30302;BME280;17111;52.130;5.028;2023-05-11T05:28:29;101591.72;;;19.60;54.30
30302;BME280;17111;52.130;5.028;2023-05-11T05:30:56;101599.78;;;19.60;54.09
30302;BME280;17111;52.130;5.028;2023-05-11T05:33:23;101596.25;;;19.59;54.11
30302;BME280;17111;52.130;5.028;2023-05-11T05:35:50;101606.84;;;19.61;54.09
30302;BME280;17111;52.130;5.028;2023-05-11T05:38:16;101603.31;;;19.60;54.42
30302;BME280;17111;52.130;5.028;2023-05-11T05:40:43;101605.16;;;19.60;53.82
30302;BME280;17111;52.130;5.028;2023-05-11T05:43:09;101609.56;;;19.61;53.67
30302;BME280;17111;52.130;5.028;2023-05-11T05:45:36;101614.09;;;19.60;54.04
30302;BME280;17111;52.130;5.028;2023-05-11T05:48:03;101614.09;;;19.60;53.68
30302;BME280;17111;52.130;5.028;2023-05-11T05:50:31;101615.81;;;19.61;53.96
30302;BME280;17111;52.130;5.028;2023-05-11T05:52:58;101624.84;;;19.60;54.23
30302;BME280;17111;52.130;5.028;2023-05-11T05:55:25;101628.38;;;19.61;54.03
30302;BME280;17111;52.130;5.028;2023-05-11T05:57:51;101628.38;;;19.61;53.53
30302;BME280;17111;52.130;5.028;2023-05-11T06:00:18;101631.94;;;19.61;53.54
30302;BME280;17111;52.130;5.028;2023-05-11T06:02:45;101632.91;;;19.60;54.15
30302;BME280;17111;52.130;5.028;2023-05-11T06:05:12;101634.63;;;19.61;54.10
30302;BME280;17111;52.130;5.028;2023-05-11T06:07:41;101635.59;;;19.60;53.93
30302;BME280;17111;52.130;5.028;2023-05-11T06:10:10;101636.34;;;19.62;53.50
30302;BME280;17111;52.130;5.028;2023-05-11T06:12:36;101633.66;;;19.62;54.23
30302;BME280;17111;52.130;5.028;2023-05-11T06:15:03;101631.94;;;19.61;54.11
30302;BME280;17111;52.130;5.028;2023-05-11T06:17:30;101631.81;;;19.63;53.42
30302;BME280;17111;52.130;5.028;2023-05-11T06:19:57;101627.28;;;19.63;53.91
30302;BME280;17111;52.130;5.028;2023-05-11T06:22:23;101620.06;;;19.64;53.49
30302;BME280;17111;52.130;5.028;2023-05-11T06:24:50;101627.28;;;19.63;53.61
30302;BME280;17111;52.130;5.028;2023-05-11T06:27:16;101623.59;;;19.64;53.82
30302;BME280;17111;52.130;5.028;2023-05-11T06:29:43;101630.81;;;19.64;53.87
30302;BME280;17111;52.130;5.028;2023-05-11T06:32:10;101633.34;;;19.65;54.23
30302;BME280;17111;52.130;5.028;2023-05-11T06:34:37;101634.22;;;19.66;53.71
30302;BME280;17111;52.130;5.028;2023-05-11T06:37:04;101635.91;;;19.67;54.14
30302;BME280;17111;52.130;5.028;2023-05-11T06:39:34;101630.53;;;19.67;54.16
30302;BME280;17111;52.130;5.028;2023-05-11T06:42:01;101634.06;;;19.67;53.72
30302;BME280;17111;52.130;5.028;2023-05-11T06:44:31;101636.59;;;19.69;53.66
30302;BME280;17111;52.130;5.028;2023-05-11T06:46:59;101638.44;;;19.68;54.03
30302;BME280;17111;52.130;5.028;2023-05-11T06:49:26;101638.44;;;19.68;53.68
30302;BME280;17111;52.130;5.028;2023-05-11T06:51:53;101640.13;;;19.69;53.53
30302;BME280;17111;52.130;5.028;2023-05-11T06:54:19;101639.16;;;19.70;53.56
30302;BME280;17111;52.130;5.028;2023-05-11T06:56:46;101642.69;;;19.71;53.44
30302;BME280;17111;52.130;5.028;2023-05-11T06:59:12;101646.22;;;19.71;53.86
30302;BME280;17111;52.130;5.028;2023-05-11T07:01:39;101643.38;;;19.73;54.00
30302;BME280;17111;52.130;5.028;2023-05-11T07:04:06;101648.63;;;19.75;53.45
30302;BME280;17111;52.130;5.028;2023-05-11T07:06:32;101643.25;;;19.75;53.71
30302;BME280;17111;52.130;5.028;2023-05-11T07:08:59;101644.94;;;19.76;53.48
30302;BME280;17111;52.130;5.028;2023-05-11T07:11:26;101646.63;;;19.77;53.44
30302;BME280;17111;52.130;5.028;2023-05-11T07:13:53;101649.31;;;19.77;53.97
30302;BME280;17111;52.130;5.028;2023-05-11T07:16:19;101651.88;;;19.78;53.57
30302;BME280;17111;52.130;5.028;2023-05-11T07:18:46;101651.72;;;19.80;53.42
30302;BME280;17111;52.130;5.028;2023-05-11T07:21:13;101650.72;;;19.81;53.68
30302;BME280;17111;52.130;5.028;2023-05-11T07:23:39;101652.41;;;19.82;53.41
30302;BME280;17111;52.130;5.028;2023-05-11T07:26:06;101650.59;;;19.82;53.43
30302;BME280;17111;52.130;5.028;2023-05-11T07:28:35;101650.44;;;19.84;53.78
30302;BME280;17111;52.130;5.028;2023-05-11T07:31:02;101653.97;;;19.84;53.32
30302;BME280;17111;52.130;5.028;2023-05-11T07:33:29;101644.91;;;19.85;53.61
30302;BME280;17111;52.130;5.028;2023-05-11T07:35:55;101647.31;;;19.88;53.62
30302;BME280;17111;52.130;5.028;2023-05-11T07:38:22;101653.69;;;19.87;53.68
30302;BME280;17111;52.130;5.028;2023-05-11T07:40:48;101661.59;;;19.89;53.66
30302;BME280;17111;52.130;5.028;2023-05-11T07:43:15;101657.91;;;19.90;53.05
30302;BME280;17111;52.130;5.028;2023-05-11T07:45:41;101658.78;;;19.90;53.17
30302;BME280;17111;52.130;5.028;2023-05-11T07:48:08;101653.25;;;19.92;53.29
30302;BME280;17111;52.130;5.028;2023-05-11T07:50:35;101661.16;;;19.93;53.68
30302;BME280;17111;52.130;5.028;2023-05-11T07:53:01;101664.56;;;19.95;52.92
30302;BME280;17111;52.130;5.028;2023-05-11T07:55:28;101656.34;;;19.97;53.51
30302;BME280;17111;52.130;5.028;2023-05-11T07:57:56;101659.03;;;19.97;53.23
30302;BME280;17111;52.130;5.028;2023-05-11T08:00:22;101665.13;;;19.99;53.14
30302;BME280;17111;52.130;5.028;2023-05-11T08:02:49;101657.75;;;20.01;53.15
30302;BME280;17111;52.130;5.028;2023-05-11T08:05:16;101665.69;;;20.03;53.17
30302;BME280;17111;52.130;5.028;2023-05-11T08:07:44;101660.16;;;20.04;53.03
30302;BME280;17111;52.130;5.028;2023-05-11T08:10:11;101659.00;;;20.07;53.39
30302;BME280;17111;52.130;5.028;2023-05-11T08:12:38;101663.41;;;20.08;52.86
30302;BME280;17111;52.130;5.028;2023-05-11T08:15:04;101654.19;;;20.10;53.25
30302;BME280;17111;52.130;5.028;2023-05-11T08:17:31;101662.09;;;20.12;52.80
30302;BME280;17111;52.130;5.028;2023-05-11T08:19:58;101667.31;;;20.13;53.08
30302;BME280;17111;52.130;5.028;2023-05-11T08:22:24;101668.03;;;20.15;53.31
30302;BME280;17111;52.130;5.028;2023-05-11T08:24:51;101663.50;;;20.16;53.31
30302;BME280;17111;52.130;5.028;2023-05-11T08:27:18;101657.97;;;20.17;52.49
30302;BME280;17111;52.130;5.028;2023-05-11T08:29:45;101657.84;;;20.19;52.59
30302;BME280;17111;52.130;5.028;2023-05-11T08:32:11;101666.75;;;20.19;52.53
30302;BME280;17111;52.130;5.028;2023-05-11T08:34:38;101660.38;;;20.20;52.36
30302;BME280;17111;52.130;5.028;2023-05-11T08:37:04;101658.38;;;20.23;52.72
30302;BME280;17111;52.130;5.028;2023-05-11T08:39:34;101663.78;;;20.23;52.81
30302;BME280;17111;52.130;5.028;2023-05-11T08:42:15;101662.59;;;20.25;52.86
30302;BME280;17111;52.130;5.028;2023-05-11T08:44:43;101658.06;;;20.26;52.31
30302;BME280;17111;52.130;5.028;2023-05-11T08:47:13;101663.44;;;20.26;52.95
30302;BME280;17111;52.130;5.028;2023-05-11T08:49:43;101660.63;;;20.27;52.81
30302;BME280;17111;52.130;5.028;2023-05-11T08:52:11;101662.31;;;20.28;52.82
30302;BME280;17111;52.130;5.028;2023-05-11T08:54:39;101665.84;;;20.29;52.22
30302;BME280;17111;52.130;5.028;2023-05-11T08:57:05;101665.84;;;20.29;52.34
30302;BME280;17111;52.130;5.028;2023-05-11T08:59:33;101663.03;;;20.30;52.16
30302;BME280;17111;52.130;5.028;2023-05-11T09:02:00;101663.03;;;20.30;52.72
30302;BME280;17111;52.130;5.028;2023-05-11T09:04:27;101667.41;;;20.31;52.38
30302;BME280;17111;52.130;5.028;2023-05-11T09:06:54;101658.34;;;20.32;52.34
30302;BME280;17111;52.130;5.028;2023-05-11T09:09:22;101667.25;;;20.33;51.95
30302;BME280;17111;52.130;5.028;2023-05-11T09:11:49;101660.88;;;20.34;51.85
30302;BME280;17111;52.130;5.028;2023-05-11T09:14:17;101658.19;;;20.34;52.08
30302;BME280;17111;52.130;5.028;2023-05-11T09:16:44;101658.88;;;20.36;52.50
30302;BME280;17111;52.130;5.028;2023-05-11T09:19:14;101654.34;;;20.36;51.81
30302;BME280;17111;52.130;5.028;2023-05-11T09:21:43;101663.13;;;20.38;52.03
30302;BME280;17111;52.130;5.028;2023-05-11T09:24:11;101664.66;;;20.41;52.47
30302;BME280;17111;52.130;5.028;2023-05-11T09:26:38;101653.75;;;20.42;51.84
30302;BME280;17111;52.130;5.028;2023-05-11T09:29:05;101662.38;;;20.46;51.90
30302;BME280;17111;52.130;5.028;2023-05-11T09:31:43;101661.38;;;20.47;52.26
30302;BME280;17111;52.130;5.028;2023-05-11T09:34:20;101649.63;;;20.48;51.96
30302;BME280;17111;52.130;5.028;2023-05-11T09:36:50;101656.44;;;20.52;52.19
30302;BME280;17111;52.130;5.028;2023-05-11T09:39:27;101649.19;;;20.53;51.83
30302;BME280;17111;52.130;5.028;2023-05-11T09:42:20;101654.97;;;20.58;51.99
30302;BME280;17111;52.130;5.028;2023-05-11T09:44:47;101655.38;;;20.63;51.76
30302;BME280;17111;52.130;5.028;2023-05-11T09:47:16;101655.06;;;20.66;51.96
30302;BME280;17111;52.130;5.028;2023-05-11T09:49:44;101649.25;;;20.70;52.17
30302;BME280;17111;52.130;5.028;2023-05-11T09:52:12;101651.47;;;20.75;52.05
30302;BME280;17111;52.130;5.028;2023-05-11T09:54:44;101652.03;;;20.79;51.87
30302;BME280;17111;52.130;5.028;2023-05-11T09:57:27;101648.16;;;20.81;51.80
30302;BME280;17111;52.130;5.028;2023-05-11T09:59:58;101647.69;;;20.86;51.84
30302;BME280;17111;52.130;5.028;2023-05-11T10:02:27;101645.41;;;20.91;51.87
30302;BME280;17111;52.130;5.028;2023-05-11T10:04:59;101660.28;;;20.95;52.17
30302;BME280;17111;52.130;5.028;2023-05-11T10:07:33;101648.19;;;20.99;51.71
30302;BME280;17111;52.130;5.028;2023-05-11T10:10:05;101655.81;;;21.04;51.94
30302;BME280;17111;52.130;5.028;2023-05-11T10:12:33;101653.66;;;21.07;52.03
30302;BME280;17111;52.130;5.028;2023-05-11T10:15:07;101645.94;;;21.12;51.86
30302;BME280;17111;52.130;5.028;2023-05-11T10:17:35;101643.63;;;21.17;51.69
30302;BME280;17111;52.130;5.028;2023-05-11T10:20:03;101642.31;;;21.22;51.91
30302;BME280;17111;52.130;5.028;2023-05-11T10:22:31;101642.72;;;21.27;51.99
30302;BME280;17111;52.130;5.028;2023-05-11T10:24:58;101645.91;;;21.30;51.49
30302;BME280;17111;52.130;5.028;2023-05-11T10:27:25;101643.78;;;21.34;51.59
30302;BME280;17111;52.130;5.028;2023-05-11T10:29:52;101645.16;;;21.38;51.70
30302;BME280;17111;52.130;5.028;2023-05-11T10:32:19;101644.03;;;21.40;51.66
30302;BME280;17111;52.130;5.028;2023-05-11T10:34:47;101645.56;;;21.43;51.77
30302;BME280;17111;52.130;5.028;2023-05-11T10:37:15;101649.78;;;21.46;51.65
30302;BME280;17111;52.130;5.028;2023-05-11T10:39:44;101655.88;;;21.48;51.52
30302;BME280;17111;52.130;5.028;2023-05-11T10:53:18;101663.50;;;21.52;51.72
30302;BME280;17111;52.130;5.028;2023-05-11T11:01:38;101668.53;;;21.47;51.14
30302;BME280;17111;52.130;5.028;2023-05-11T11:04:09;101666.81;;;21.46;51.31
30302;BME280;17111;52.130;5.028;2023-05-11T11:06:41;101667.81;;;21.45;51.32
30302;BME280;17111;52.130;5.028;2023-05-11T11:09:14;101664.44;;;21.43;51.27
30302;BME280;17111;52.130;5.028;2023-05-11T11:11:42;101662.72;;;21.42;51.39
30302;BME280;17111;52.130;5.028;2023-05-11T11:14:13;101666.97;;;21.44;51.19
30302;BME280;17111;52.130;5.028;2023-05-11T11:16:42;101658.34;;;21.41;51.06
30302;BME280;17111;52.130;5.028;2023-05-11T11:21:57;101668.47;;;21.39;51.13
30302;BME280;17111;52.130;5.028;2023-05-11T11:27:07;101659.66;;;21.37;51.13
30302;BME280;17111;52.130;5.028;2023-05-11T11:29:35;101663.38;;;21.36;51.27
30302;BME280;17111;52.130;5.028;2023-05-11T11:32:28;101655.41;;;21.34;51.35
30302;BME280;17111;52.130;5.028;2023-05-11T11:34:55;101663.38;;;21.36;51.41
30302;BME280;17111;52.130;5.028;2023-05-11T11:37:21;101657.13;;;21.35;51.11
30302;BME280;17111;52.130;5.028;2023-05-11T11:39:50;101661.69;;;21.35;51.20
30302;BME280;17111;52.130;5.028;2023-05-11T11:45:28;101658.28;;;21.33;51.24
30302;BME280;17111;52.130;5.028;2023-05-11T11:48:19;101658.28;;;21.33;51.06
30302;BME280;17111;52.130;5.028;2023-05-11T11:50:47;101666.06;;;21.36;51.26
30302;BME280;17111;52.130;5.028;2023-05-11T11:56:04;101666.22;;;21.34;51.21
30302;BME280;17111;52.130;5.028;2023-05-11T12:01:11;101673.63;;;21.32;51.35
30302;BME280;17111;52.130;5.028;2023-05-11T12:03:39;101673.63;;;21.32;51.00
30302;BME280;17111;52.130;5.028;2023-05-11T12:06:08;101674.59;;;21.31;50.99
30302;BME280;17111;52.130;5.028;2023-05-11T12:08:36;101678.13;;;21.32;50.96
30302;BME280;17111;52.130;5.028;2023-05-11T12:11:05;101691.75;;;21.30;51.46
30302;BME280;17111;52.130;5.028;2023-05-11T12:13:32;101686.38;;;21.30;51.19
30302;BME280;17111;52.130;5.028;2023-05-11T12:16:13;101686.53;;;21.29;51.40
30302;BME280;17111;52.130;5.028;2023-05-11T12:18:41;101689.22;;;21.29;51.09
30302;BME280;17111;52.130;5.028;2023-05-11T12:21:29;101685.84;;;21.27;51.27
30302;BME280;17111;52.130;5.028;2023-05-11T12:23:59;101673.03;;;21.29;51.08
30302;BME280;17111;52.130;5.028;2023-05-11T12:26:27;101679.44;;;21.28;51.48
30302;BME280;17111;52.130;5.028;2023-05-11T12:29:08;101670.66;;;21.26;51.26
30302;BME280;17111;52.130;5.028;2023-05-11T12:31:40;101675.06;;;21.27;51.51
30302;BME280;17111;52.130;5.028;2023-05-11T12:34:15;101676.75;;;21.28;51.28
30302;BME280;17111;52.130;5.028;2023-05-11T12:36:46;101672.19;;;21.28;51.09
30302;BME280;17111;52.130;5.028;2023-05-11T12:39:21;101664.28;;;21.27;51.00
30302;BME280;17111;52.130;5.028;2023-05-11T12:41:50;101662.25;;;21.29;51.28
30302;BME280;17111;52.130;5.028;2023-05-11T12:44:17;101663.09;;;21.29;51.46
30302;BME280;17111;52.130;5.028;2023-05-11T12:46:46;101666.50;;;21.31;51.39
30302;BME280;17111;52.130;5.028;2023-05-11T12:49:20;101662.84;;;21.32;51.17
30302;BME280;17111;52.130;5.028;2023-05-11T12:54:32;101662.53;;;21.35;51.14
30302;BME280;17111;52.130;5.028;2023-05-11T12:57:00;101680.41;;;21.36;51.22
30302;BME280;17111;52.130;5.028;2023-05-11T13:02:12;101674.16;;;21.36;51.00
30302;BME280;17111;52.130;5.028;2023-05-11T13:04:40;101682.94;;;21.38;51.15
30302;BME280;17111;52.130;5.028;2023-05-11T13:07:08;101683.78;;;21.38;51.08
30302;BME280;17111;52.130;5.028;2023-05-11T13:09:35;101685.50;;;21.39;51.30
30302;BME280;17111;52.130;5.028;2023-05-11T13:14:32;101689.16;;;21.38;51.35
30302;BME280;17111;52.130;5.028;2023-05-11T13:16:59;101693.72;;;21.38;51.05
30302;BME280;17111;52.130;5.028;2023-05-11T13:19:27;101695.72;;;21.36;51.21
30302;BME280;17111;52.130;5.028;2023-05-11T13:21:55;101698.44;;;21.36;51.25
30302;BME280;17111;52.130;5.028;2023-05-11T13:24:25;101700.59;;;21.32;50.93
30302;BME280;17111;52.130;5.028;2023-05-11T13:26:53;101698.03;;;21.31;51.09
30302;BME280;17111;52.130;5.028;2023-05-11T13:29:20;101697.31;;;21.29;50.93
30302;BME280;17111;52.130;5.028;2023-05-11T13:31:51;101694.06;;;21.25;51.44
30302;BME280;17111;52.130;5.028;2023-05-11T13:34:19;101694.06;;;21.25;51.14
30302;BME280;17111;52.130;5.028;2023-05-11T13:36:46;101684.78;;;21.19;51.54
30302;BME280;17111;52.130;5.028;2023-05-11T13:39:13;101698.25;;;21.19;51.06
30302;BME280;17111;52.130;5.028;2023-05-11T13:41:40;101678.66;;;21.17;51.56
30302;BME280;17111;52.130;5.028;2023-05-11T13:44:06;101678.66;;;21.17;51.38
30302;BME280;17111;52.130;5.028;2023-05-11T13:46:34;101683.22;;;21.17;51.48